Time;durP1;ratioP1;P1;durP2;ratioP2;P2;SDS_P1;SDS_P2;PMS_P1;PMS_P2;Temp;Humidity;BMP_temperature;BMP_pressure;BME280_temperature;BME280_humidity;BME280_pressure;Samples;Min_cycle;Max_cycle;Signal;HPM_P1;HPM_P2
2023/09/17 00:00:16;;;;;;;41.53;39.83;;;25.40;99.90;;;;;;5059402;28;21014;-58
2023/09/17 00:02:43;;;;;;;41.60;40.00;;;25.30;99.90;;;;;;5060238;28;20476;-59
2023/09/17 00:05:10;;;;;;;40.40;38.80;;;25.30;99.90;;;;;;5062877;28;20496;-58
2023/09/17 00:07:37;;;;;;;45.57;43.53;;;25.20;99.90;;;;;;5062553;28;20482;-59
2023/09/17 00:10:06;;;;;;;40.40;38.63;;;25.10;99.90;;;;;;5059269;28;21022;-61
2023/09/17 00:12:33;;;;;;;40.83;39.30;;;25.00;99.90;;;;;;5059221;28;20946;-60
2023/09/17 00:15:00;;;;;;;40.13;38.63;;;25.00;99.90;;;;;;5062728;28;20464;-61
2023/09/17 00:17:27;;;;;;;40.10;38.50;;;24.90;99.90;;;;;;5062938;28;20881;-60
2023/09/17 00:19:54;;;;;;;39.93;38.43;;;24.90;99.90;;;;;;5060045;28;20506;-61
2023/09/17 00:22:20;;;;;;;41.67;39.77;;;24.70;99.90;;;;;;5059259;28;20472;-57
2023/09/17 00:24:47;;;;;;;41.80;40.10;;;24.70;99.90;;;;;;5060690;28;21098;-58
2023/09/17 00:27:15;;;;;;;41.17;39.27;;;24.60;99.90;;;;;;5062760;28;20877;-57
2023/09/17 00:29:42;;;;;;;42.20;40.43;;;24.60;99.90;;;;;;5064623;28;20503;-57
2023/09/17 00:32:09;;;;;;;41.30;39.60;;;24.60;99.90;;;;;;5063228;28;20539;-58
2023/09/17 00:34:36;;;;;;;40.40;38.80;;;24.50;99.90;;;;;;5062906;28;20479;-60
2023/09/17 00:37:03;;;;;;;41.17;39.37;;;24.50;99.90;;;;;;5066691;28;20467;-58
2023/09/17 00:39:30;;;;;;;41.37;39.60;;;24.50;99.90;;;;;;5066520;28;20952;-57
2023/09/17 00:41:57;;;;;;;40.43;38.63;;;24.50;99.90;;;;;;5063608;28;20506;-58
2023/09/17 00:44:25;;;;;;;40.90;39.10;;;24.40;99.90;;;;;;5062963;28;20475;-59
2023/09/17 00:46:52;;;;;;;40.57;38.80;;;24.40;99.90;;;;;;5064944;28;20468;-60
2023/09/17 00:49:19;;;;;;;39.80;38.10;;;24.40;99.90;;;;;;5066341;28;20517;-57
2023/09/17 00:51:46;;;;;;;42.23;40.43;;;24.40;99.90;;;;;;5064840;28;20491;-56
2023/09/17 00:54:14;;;;;;;40.67;39.07;;;24.40;99.90;;;;;;5062737;28;20472;-58
2023/09/17 00:56:42;;;;;;;41.57;39.73;;;24.40;99.90;;;;;;5063219;28;20478;-58
2023/09/17 00:59:10;;;;;;;39.73;38.13;;;24.40;99.90;;;;;;5066235;28;20854;-60
2023/09/17 01:01:38;;;;;;;42.60;40.90;;;24.30;99.90;;;;;;5066013;28;20981;-57
2023/09/17 01:04:08;;;;;;;42.27;40.43;;;24.30;99.90;;;;;;5066003;28;20467;-58
2023/09/17 01:06:37;;;;;;;42.27;40.37;;;24.30;99.90;;;;;;5066030;28;20511;-57
2023/09/17 01:09:05;;;;;;;40.90;39.30;;;24.30;99.90;;;;;;5054431;28;20471;-57
2023/09/17 01:11:32;;;;;;;42.53;40.93;;;24.30;99.90;;;;;;5062440;28;20546;-55
2023/09/17 01:14:08;;;;;;;41.73;40.03;;;24.30;99.90;;;;;;5065207;28;20494;-56
2023/09/17 01:16:35;;;;;;;42.30;40.50;;;24.30;99.90;;;;;;5065927;28;20439;-58
2023/09/17 01:19:04;;;;;;;38.20;36.80;;;24.20;99.90;;;;;;5062441;28;20462;-59
2023/09/17 01:21:35;;;;;;;38.97;37.47;;;24.20;99.90;;;;;;5062199;28;20491;-56
2023/09/17 01:24:19;;;;;;;41.27;39.67;;;24.20;99.90;;;;;;5065385;28;20942;-57
2023/09/17 01:26:59;;;;;;;40.80;39.03;;;24.20;99.90;;;;;;5064561;28;20482;-58
2023/09/17 01:29:26;;;;;;;40.17;38.57;;;24.20;99.90;;;;;;5062153;28;20475;-58
2023/09/17 01:31:55;;;;;;;40.40;38.83;;;24.20;99.90;;;;;;5063972;28;20474;-60
2023/09/17 01:34:23;;;;;;;40.00;38.40;;;24.10;99.90;;;;;;5065348;28;20530;-61
2023/09/17 01:36:52;;;;;;;42.10;40.40;;;24.20;99.90;;;;;;5063849;28;20445;-61
2023/09/17 01:39:25;;;;;;;40.57;38.97;;;24.20;99.90;;;;;;5061603;28;20440;-61
2023/09/17 01:41:54;;;;;;;40.37;38.43;;;24.20;99.90;;;;;;5063599;28;20526;-61
2023/09/17 01:44:22;;;;;;;38.67;37.07;;;24.20;99.90;;;;;;5065190;28;20472;-61
2023/09/17 01:46:49;;;;;;;42.67;40.77;;;24.10;99.90;;;;;;5063914;28;20449;-59
2023/09/17 01:49:16;;;;;;;38.13;36.53;;;24.10;99.90;;;;;;5061807;28;20494;-59
2023/09/17 01:51:44;;;;;;;39.50;37.97;;;24.10;99.90;;;;;;5062088;28;20827;-60
2023/09/17 01:54:11;;;;;;;39.13;37.53;;;24.10;99.90;;;;;;5065011;28;20441;-60
2023/09/17 01:56:39;;;;;;;39.17;37.57;;;24.10;99.90;;;;;;5065103;28;20446;-60
2023/09/17 01:59:07;;;;;;;42.83;41.03;;;24.10;99.90;;;;;;5053622;28;20444;-60
2023/09/17 02:01:34;;;;;;;38.33;36.83;;;24.10;99.90;;;;;;5061515;28;20464;-60
2023/09/17 02:04:01;;;;;;;37.90;36.40;;;24.10;99.90;;;;;;5064170;28;20478;-60
2023/09/17 02:06:28;;;;;;;43.40;41.50;;;24.00;99.90;;;;;;5065017;28;20478;-60
2023/09/17 02:08:55;;;;;;;40.00;38.37;;;24.00;99.90;;;;;;5062796;28;20500;-60
2023/09/17 02:11:22;;;;;;;41.63;39.93;;;24.00;99.90;;;;;;5061294;28;20534;-61
2023/09/17 02:13:49;;;;;;;40.83;39.23;;;24.00;99.90;;;;;;5062382;28;20871;-60
2023/09/17 02:16:17;;;;;;;39.00;37.20;;;24.00;99.90;;;;;;5064811;28;20878;-60
2023/09/17 02:18:44;;;;;;;43.07;41.20;;;24.00;99.90;;;;;;5064058;28;20474;-59
2023/09/17 02:21:11;;;;;;;43.27;41.43;;;24.00;99.90;;;;;;5060994;28;20488;-60
2023/09/17 02:23:38;;;;;;;42.13;40.10;;;24.00;99.90;;;;;;5061029;28;20476;-60
2023/09/17 02:26:04;;;;;;;41.63;39.70;;;24.00;99.90;;;;;;5064370;28;20463;-61
2023/09/17 02:28:31;;;;;;;43.33;41.17;;;24.00;99.90;;;;;;5064484;28;20474;-60
2023/09/17 02:31:00;;;;;;;42.80;40.70;;;24.00;99.90;;;;;;5061867;28;20523;-60
2023/09/17 02:33:28;;;;;;;43.57;41.40;;;24.00;99.90;;;;;;5060794;28;20440;-60
2023/09/17 02:35:55;;;;;;;44.83;42.87;;;23.90;99.90;;;;;;5062877;28;20476;-59
2023/09/17 02:38:22;;;;;;;42.10;40.30;;;23.90;99.90;;;;;;5064475;28;20953;-59
2023/09/17 02:40:49;;;;;;;42.40;40.50;;;23.90;99.90;;;;;;5063112;28;20473;-58
2023/09/17 02:43:16;;;;;;;42.90;40.93;;;23.90;99.90;;;;;;5060713;28;20494;-59
2023/09/17 02:45:43;;;;;;;41.90;40.00;;;23.90;99.90;;;;;;5060703;28;20479;-60
2023/09/17 02:48:12;;;;;;;40.43;38.33;;;23.90;99.90;;;;;;5064175;28;20444;-58
2023/09/17 02:50:40;;;;;;;43.13;40.93;;;23.90;99.90;;;;;;5063400;28;20840;-60
2023/09/17 02:53:07;;;;;;;40.10;38.30;;;23.90;99.90;;;;;;5052081;28;20440;-59
2023/09/17 02:55:34;;;;;;;41.63;39.70;;;23.90;99.90;;;;;;5060572;28;20472;-60
2023/09/17 02:58:02;;;;;;;40.17;38.37;;;23.90;99.90;;;;;;5063154;28;20931;-59
2023/09/17 03:00:31;;;;;;;42.47;40.17;;;23.90;99.90;;;;;;5063787;28;20459;-61
2023/09/17 03:02:58;;;;;;;41.50;39.47;;;23.90;99.90;;;;;;5061490;28;20482;-60
2023/09/17 03:05:25;;;;;;;41.97;40.07;;;23.90;99.90;;;;;;5060340;28;20940;-59
2023/09/17 03:07:53;;;;;;;41.93;39.93;;;23.90;99.90;;;;;;5061569;28;20440;-60
2023/09/17 03:10:20;;;;;;;40.30;38.40;;;23.90;99.90;;;;;;5063621;28;20491;-60
2023/09/17 03:12:48;;;;;;;42.40;40.40;;;23.90;99.90;;;;;;5062646;28;20443;-58
2023/09/17 03:15:15;;;;;;;41.33;39.37;;;23.90;99.90;;;;;;5060137;28;20917;-54
2023/09/17 03:17:42;;;;;;;41.57;39.57;;;23.90;99.90;;;;;;5060099;28;20444;-59
2023/09/17 03:20:17;;;;;;;41.40;39.47;;;23.80;99.90;;;;;;5063284;28;20455;-59
2023/09/17 03:22:44;;;;;;;40.67;38.63;;;23.80;99.90;;;;;;5063144;28;20443;-55
2023/09/17 03:25:13;;;;;;;43.20;41.20;;;23.80;99.90;;;;;;5060141;28;20468;-59
2023/09/17 03:27:43;;;;;;;44.40;42.40;;;23.80;99.90;;;;;;5060097;28;20494;-56
2023/09/17 03:30:10;;;;;;;41.80;39.80;;;23.80;99.90;;;;;;5063141;28;20906;-57
2023/09/17 03:32:37;;;;;;;44.07;42.00;;;23.80;99.90;;;;;;5063187;28;20966;-52
2023/09/17 03:35:06;;;;;;;43.73;41.73;;;23.80;99.90;;;;;;5060272;28;20956;-59
2023/09/17 03:37:32;;;;;;;43.00;41.10;;;23.90;99.90;;;;;;5059967;28;20819;-58
2023/09/17 03:40:10;;;;;;;41.27;39.07;;;23.90;99.90;;;;;;5061937;28;20851;-59
2023/09/17 03:42:40;;;;;;;42.33;40.43;;;23.90;99.90;;;;;;5063034;28;20529;-58
2023/09/17 03:45:10;;;;;;;44.03;41.87;;;23.90;99.90;;;;;;5059747;28;20483;-53
2023/09/17 03:47:37;;;;;;;42.40;40.23;;;23.90;99.90;;;;;;5059794;28;20449;-50
2023/09/17 03:50:06;;;;;;;42.17;40.20;;;23.90;99.90;;;;;;5062318;28;20515;-54
2023/09/17 03:52:34;;;;;;;41.43;39.53;;;23.90;99.90;;;;;;5063002;28;20454;-60
2023/09/17 03:55:01;;;;;;;41.40;39.50;;;23.90;99.90;;;;;;5060586;28;20479;-64
2023/09/17 03:57:29;;;;;;;50.30;48.10;;;24.00;99.90;;;;;;5059602;28;20482;-56
2023/09/17 04:00:06;;;;;;;51.03;48.63;;;24.10;99.90;;;;;;5060624;28;20488;-57
2023/09/17 04:02:35;;;;;;;53.40;50.90;;;24.10;99.90;;;;;;5062709;28;20447;-59
2023/09/17 04:05:08;;;;;;;50.37;48.27;;;24.20;99.90;;;;;;5059993;28;20448;-61
2023/09/17 04:07:35;;;;;;;51.07;48.83;;;24.20;99.90;;;;;;5059449;28;21015;-61
2023/09/17 04:10:05;;;;;;;52.87;50.47;;;24.30;99.90;;;;;;5060390;28;20544;-59
2023/09/17 04:12:34;;;;;;;53.10;50.80;;;24.50;99.90;;;;;;5062551;28;20497;-56
2023/09/17 04:15:07;;;;;;;51.40;49.10;;;24.60;99.90;;;;;;5060672;28;20954;-53
2023/09/17 04:17:35;;;;;;;50.37;48.37;;;24.70;99.90;;;;;;5059974;28;20531;-59
2023/09/17 04:22:33;;;;;;;52.40;49.80;;;25.00;99.90;;;;;;5076783;28;20471;-62
2023/09/17 04:25:01;;;;;;;45.20;43.10;;;25.20;99.90;;;;;;5081362;28;20439;-60
2023/09/17 04:27:30;;;;;;;48.50;46.30;;;25.30;99.90;;;;;;5082712;28;20941;-61
2023/09/17 04:29:58;;;;;;;44.17;42.27;;;25.40;99.90;;;;;;5080919;28;20442;-60
2023/09/17 04:32:28;;;;;;;45.77;43.73;;;25.40;99.90;;;;;;5059097;28;20464;-60
2023/09/17 04:34:56;;;;;;;49.23;47.00;;;25.40;99.90;;;;;;5060260;28;20444;-57
2023/09/17 04:37:30;;;;;;;48.30;46.30;;;25.40;99.90;;;;;;5062756;28;20443;-60
2023/09/17 04:40:01;;;;;;;43.00;41.20;;;25.40;99.90;;;;;;5060861;28;20942;-61
2023/09/17 04:42:31;;;;;;;46.30;44.20;;;25.40;99.90;;;;;;5058905;28;20825;-61
2023/09/17 04:45:00;;;;;;;43.23;41.23;;;25.30;99.90;;;;;;5060761;28;20451;-61
2023/09/17 04:47:29;;;;;;;42.83;40.73;;;25.20;99.90;;;;;;5061996;28;20470;-61
2023/09/17 04:49:57;;;;;;;45.53;43.60;;;25.20;99.90;;;;;;5060941;28;20450;-59
2023/09/17 04:52:26;;;;;;;44.97;42.97;;;25.10;99.90;;;;;;5058999;28;20483;-59
2023/09/17 04:54:53;;;;;;;47.73;45.80;;;25.00;99.90;;;;;;5059574;28;20475;-61
2023/09/17 04:57:23;;;;;;;45.03;43.13;;;24.90;99.90;;;;;;5062436;28;20855;-60
2023/09/17 04:59:52;;;;;;;47.33;45.33;;;24.90;99.90;;;;;;5061638;28;20942;-61
2023/09/17 05:02:21;;;;;;;43.43;41.20;;;24.80;99.90;;;;;;5057258;28;20545;-60
2023/09/17 05:04:50;;;;;;;44.33;42.27;;;24.70;99.90;;;;;;5058814;28;20448;-57
2023/09/17 05:07:17;;;;;;;43.17;41.13;;;24.70;99.90;;;;;;5062350;28;20447;-60
2023/09/17 05:09:46;;;;;;;47.73;45.73;;;24.60;99.90;;;;;;5062318;28;20530;-60
2023/09/17 05:12:14;;;;;;;48.03;46.07;;;24.60;99.90;;;;;;5050330;28;20519;-60
2023/09/17 05:14:43;;;;;;;45.37;43.47;;;24.60;99.90;;;;;;5059886;28;20881;-61
2023/09/17 05:17:10;;;;;;;44.23;42.33;;;24.50;99.90;;;;;;5065406;28;20440;-59
2023/09/17 05:19:40;;;;;;;45.37;43.37;;;24.50;99.90;;;;;;5065809;28;20474;-61
2023/09/17 05:22:12;;;;;;;46.90;44.93;;;24.40;99.90;;;;;;5060675;28;20509;-60
2023/09/17 05:24:39;;;;;;;43.93;41.93;;;24.40;99.90;;;;;;5062177;28;20444;-61
2023/09/17 05:27:06;;;;;;;49.40;46.97;;;24.30;99.90;;;;;;5064606;28;20488;-60
2023/09/17 05:29:36;;;;;;;45.43;43.60;;;24.30;99.90;;;;;;5065678;28;20439;-61
2023/09/17 05:32:04;;;;;;;44.53;42.63;;;24.30;99.90;;;;;;5063140;28;20507;-62
2023/09/17 05:34:30;;;;;;;46.33;44.33;;;24.30;99.90;;;;;;5061795;28;20967;-61
2023/09/17 05:36:57;;;;;;;45.07;42.93;;;24.20;99.90;;;;;;5063171;28;20955;-59
2023/09/17 05:39:25;;;;;;;46.27;44.27;;;24.20;99.90;;;;;;5065515;28;20950;-59
2023/09/17 05:41:54;;;;;;;47.27;45.20;;;24.20;99.90;;;;;;5064489;28;20506;-57
2023/09/17 05:44:22;;;;;;;44.03;42.23;;;24.20;99.90;;;;;;5061807;28;20452;-61
2023/09/17 05:46:49;;;;;;;42.87;41.07;;;24.20;99.90;;;;;;5061895;28;20448;-62
2023/09/17 05:49:16;;;;;;;41.57;39.67;;;24.20;99.90;;;;;;5065221;28;20475;-61
2023/09/17 05:51:43;;;;;;;49.77;47.77;;;24.10;99.90;;;;;;5064964;28;20511;-63
2023/09/17 05:54:10;;;;;;;53.00;50.23;;;24.10;99.90;;;;;;5061903;28;20825;-62
2023/09/17 05:56:38;;;;;;;50.43;48.23;;;24.20;99.90;;;;;;5061615;28;20952;-58
2023/09/17 05:59:05;;;;;;;50.30;48.10;;;24.20;99.90;;;;;;5063838;28;20472;-64
2023/09/17 06:01:33;;;;;;;53.27;51.07;;;24.20;99.90;;;;;;5064906;28;20491;-63
2023/09/17 06:04:02;;;;;;;50.93;48.93;;;24.40;99.90;;;;;;5063110;28;20455;-62
2023/09/17 06:06:30;;;;;;;51.50;49.50;;;24.40;99.90;;;;;;5061061;28;20919;-62
2023/09/17 06:08:59;;;;;;;52.40;50.07;;;24.50;99.90;;;;;;5062560;28;20476;-60
2023/09/17 06:11:27;;;;;;;51.20;49.30;;;24.60;99.90;;;;;;5064617;28;20534;-59
2023/09/17 06:13:57;;;;;;;51.50;49.60;;;24.80;99.90;;;;;;5063814;28;20454;-60
2023/09/17 06:16:25;;;;;;;54.60;52.23;;;24.90;99.90;;;;;;5060912;28;20814;-58
2023/09/17 06:18:55;;;;;;;53.63;51.13;;;25.00;99.90;;;;;;5059082;28;20472;-61
2023/09/17 06:21:23;;;;;;;57.20;54.60;;;25.10;99.90;;;;;;5064521;28;20463;-61
2023/09/17 06:23:54;;;;;;;53.43;50.90;;;25.20;99.90;;;;;;5065425;28;20454;-61
2023/09/17 06:26:24;;;;;;;56.90;54.00;;;25.30;99.90;;;;;;5061064;28;20445;-61
2023/09/17 06:28:53;;;;;;;57.73;55.13;;;25.40;99.90;;;;;;5061385;28;20448;-61
2023/09/17 06:31:34;;;;;;;56.00;53.60;;;25.50;99.90;;;;;;5064253;28;20585;-61
2023/09/17 06:34:01;;;;;;;57.73;55.13;;;25.50;99.90;;;;;;5062633;28;20443;-60
2023/09/17 06:36:36;;;;;;;55.13;52.73;;;25.70;99.90;;;;;;5060544;28;20441;-61
2023/09/17 06:39:06;;;;;;;54.67;52.00;;;25.70;99.90;;;;;;5062547;28;20444;-60
2023/09/17 06:41:35;;;;;;;56.07;53.80;;;25.80;99.90;;;;;;5064305;28;20537;-64
2023/09/17 06:44:05;;;;;;;53.40;51.30;;;25.90;99.90;;;;;;5061939;28;20475;-63
2023/09/17 06:46:37;;;;;;;56.03;53.90;;;26.00;99.90;;;;;;5059861;28;20444;-62
2023/09/17 06:49:04;;;;;;;56.50;54.13;;;26.00;99.90;;;;;;5062372;28;20804;-63
2023/09/17 06:51:33;;;;;;;54.93;52.73;;;26.10;99.90;;;;;;5063849;28;20494;-62
2023/09/17 06:54:01;;;;;;;54.60;52.50;;;26.10;99.90;;;;;;5059293;28;20435;-63
2023/09/17 06:56:33;;;;;;;54.50;52.17;;;26.20;99.90;;;;;;5059891;28;20486;-64
2023/09/17 06:59:05;;;;;;;55.53;53.43;;;26.20;99.90;;;;;;5061682;28;20456;-63
2023/09/17 07:01:39;;;;;;;60.57;58.07;;;26.30;99.90;;;;;;5046751;28;20485;-60
2023/09/17 07:04:08;;;;;;;58.60;56.30;;;26.30;99.90;;;;;;5061576;28;20450;-61
2023/09/17 07:06:35;;;;;;;62.00;59.50;;;26.40;99.90;;;;;;5060410;28;20498;-63
2023/09/17 07:09:03;;;;;;;59.00;56.70;;;26.40;99.90;;;;;;5061699;28;20448;-63
2023/09/17 07:11:30;;;;;;;59.57;57.27;;;26.50;99.90;;;;;;5063457;28;20479;-63
2023/09/17 07:13:57;;;;;;;57.77;55.40;;;26.50;99.90;;;;;;5062647;28;20471;-63
2023/09/17 07:16:24;;;;;;;57.90;55.80;;;26.50;99.90;;;;;;5060302;28;20468;-62
2023/09/17 07:18:54;;;;;;;58.93;56.73;;;26.60;99.90;;;;;;5060124;28;20476;-63
2023/09/17 07:21:21;;;;;;;58.53;56.13;;;26.60;99.90;;;;;;5052138;28;20471;-63
2023/09/17 07:23:50;;;;;;;60.40;58.00;;;26.60;99.90;;;;;;5059784;28;20483;-64
2023/09/17 07:26:19;;;;;;;60.67;58.27;;;26.60;99.90;;;;;;5063333;28;20455;-63
2023/09/17 07:28:46;;;;;;;60.60;58.10;;;26.70;99.90;;;;;;5063327;28;20443;-63
2023/09/17 07:31:14;;;;;;;61.90;59.43;;;26.70;99.90;;;;;;5060123;28;20523;-62
2023/09/17 07:33:42;;;;;;;62.73;60.30;;;26.70;99.90;;;;;;5059844;28;20476;-62
2023/09/17 07:36:11;;;;;;;61.93;59.63;;;26.80;99.90;;;;;;5062184;28;20445;-63
2023/09/17 07:38:38;;;;;;;60.37;58.17;;;26.70;99.90;;;;;;5062736;28;20443;-64
2023/09/17 07:41:05;;;;;;;60.23;57.90;;;26.80;99.90;;;;;;5061254;28;20486;-64
2023/09/17 07:43:32;;;;;;;58.17;55.97;;;26.80;99.90;;;;;;5059586;28;20941;-62
2023/09/17 07:45:59;;;;;;;58.50;56.30;;;26.90;99.90;;;;;;5060325;28;20986;-62
2023/09/17 07:48:26;;;;;;;58.53;56.40;;;26.90;99.90;;;;;;5063262;28;20561;-64
2023/09/17 07:50:58;;;;;;;60.77;58.40;;;26.80;99.90;;;;;;5062974;28;20490;-63
2023/09/17 07:53:26;;;;;;;65.60;62.80;;;26.90;99.90;;;;;;5052030;28;20437;-57
2023/09/17 07:55:55;;;;;;;58.17;55.77;;;26.80;99.90;;;;;;5059534;28;20479;-64
2023/09/17 07:58:23;;;;;;;59.83;57.53;;;26.80;99.90;;;;;;5062067;28;20535;-63
2023/09/17 08:00:50;;;;;;;60.60;58.20;;;27.00;99.90;;;;;;5062793;28;20471;-64
2023/09/17 08:03:21;;;;;;;61.50;58.67;;;27.00;99.90;;;;;;5040508;28;20522;-58
2023/09/17 08:05:49;;;;;;;59.00;56.27;;;27.00;99.90;;;;;;5059484;28;20455;-57
2023/09/17 08:08:18;;;;;;;63.47;60.40;;;27.00;99.90;;;;;;5062447;28;20443;-58
2023/09/17 08:10:50;;;;;;;62.53;59.50;;;27.00;99.90;;;;;;5062811;28;20532;-59
2023/09/17 08:13:17;;;;;;;65.03;62.07;;;27.10;99.90;;;;;;5059338;28;20507;-59
2023/09/17 08:15:49;;;;;;;62.70;59.70;;;27.10;99.90;;;;;;5059285;28;20949;-60
2023/09/17 08:18:17;;;;;;;63.73;60.70;;;27.10;99.90;;;;;;5062070;28;20501;-57
2023/09/17 08:20:44;;;;;;;62.20;59.17;;;27.10;99.90;;;;;;5062622;28;20503;-55
2023/09/17 08:23:13;;;;;;;65.03;60.83;;;27.20;99.90;;;;;;5060036;28;20444;-61
2023/09/17 08:25:42;;;;;;;60.40;57.70;;;27.10;99.90;;;;;;5059267;28;20447;-61
2023/09/17 08:28:15;;;;;;;62.77;59.90;;;27.20;99.90;;;;;;5060294;28;20512;-61
2023/09/17 08:30:42;;;;;;;59.87;56.87;;;27.30;99.90;;;;;;5062569;28;20463;-62
2023/09/17 08:33:11;;;;;;;63.07;60.30;;;27.30;99.90;;;;;;5042666;28;20816;-60
2023/09/17 08:35:39;;;;;;;61.00;58.20;;;27.30;99.90;;;;;;5056744;28;20449;-60
2023/09/17 08:38:07;;;;;;;61.70;59.10;;;27.40;99.90;;;;;;5060333;28;20452;-59
2023/09/17 08:40:41;;;;;;;60.80;58.30;;;27.40;99.90;;;;;;5062458;28;20501;-60
2023/09/17 08:43:12;;;;;;;57.07;54.70;;;27.30;99.90;;;;;;5060612;28;20515;-62
2023/09/17 08:45:45;;;;;;;56.03;53.57;;;27.40;99.90;;;;;;5058945;28;20445;-60
2023/09/17 08:48:15;;;;;;;58.20;55.90;;;27.40;99.90;;;;;;5061357;28;21157;-60
2023/09/17 08:50:45;;;;;;;56.60;54.20;;;27.30;99.90;;;;;;5065335;28;20452;-58
2023/09/17 08:53:20;;;;;;;60.53;57.93;;;27.40;99.90;;;;;;5063567;28;20487;-59
2023/09/17 08:55:56;;;;;;;57.67;55.50;;;27.30;99.90;;;;;;5062815;28;20867;-62
2023/09/17 08:58:33;;;;;;;58.10;55.70;;;27.30;99.90;;;;;;5055037;28;20477;-61
2023/09/17 09:01:03;;;;;;;58.30;55.77;;;27.30;99.90;;;;;;5063259;28;20471;-59
2023/09/17 09:03:35;;;;;;;58.77;56.60;;;27.40;99.90;;;;;;5065943;28;20475;-60
2023/09/17 09:06:03;;;;;;;57.40;55.40;;;27.40;99.90;;;;;;5065261;28;20543;-61
2023/09/17 09:08:32;;;;;;;59.23;57.03;;;27.40;99.90;;;;;;5062591;28;20951;-60
2023/09/17 09:11:00;;;;;;;58.23;55.83;;;27.40;99.90;;;;;;5063027;28;20498;-63
2023/09/17 09:13:29;;;;;;;49.43;47.43;;;27.40;99.90;;;;;;5065859;28;20508;-59
2023/09/17 09:15:58;;;;;;;48.37;46.50;;;27.50;99.90;;;;;;5065816;28;20471;-61
2023/09/17 09:18:25;;;;;;;48.70;46.80;;;27.40;99.90;;;;;;5054773;28;20479;-61
2023/09/17 09:20:52;;;;;;;48.33;46.53;;;27.40;99.90;;;;;;5062058;28;20491;-62
2023/09/17 09:23:19;;;;;;;51.77;49.77;;;27.30;99.90;;;;;;5065135;28;20459;-65
2023/09/17 09:25:45;;;;;;;51.67;49.70;;;27.30;99.90;;;;;;5065869;28;20471;-61
2023/09/17 09:28:12;;;;;;;49.30;47.50;;;27.20;99.90;;;;;;5063476;28;20582;-60
2023/09/17 09:30:43;;;;;;;47.00;45.27;;;27.10;99.90;;;;;;5062021;28;20484;-60
2023/09/17 09:33:11;;;;;;;50.93;49.13;;;27.00;99.90;;;;;;5063631;28;20907;-59
2023/09/17 09:35:38;;;;;;;50.83;49.00;;;26.90;99.90;;;;;;5065531;28;20883;-60
2023/09/17 09:38:05;;;;;;;52.33;50.43;;;26.80;99.90;;;;;;5064272;28;20546;-63
2023/09/17 09:40:34;;;;;;;52.33;50.43;;;26.70;99.90;;;;;;5057887;28;20507;-62
2023/09/17 09:43:02;;;;;;;53.77;51.60;;;26.60;99.90;;;;;;5065590;28;20444;-61
2023/09/17 09:45:29;;;;;;;53.53;51.63;;;26.60;99.90;;;;;;5061828;28;20464;-62
2023/09/17 09:47:58;;;;;;;50.03;48.23;;;26.50;99.90;;;;;;5052649;28;20476;-63
2023/09/17 09:50:25;;;;;;;50.83;48.93;;;26.40;99.90;;;;;;5054562;28;20469;-63
2023/09/17 09:52:53;;;;;;;52.20;50.30;;;26.40;99.90;;;;;;5065089;28;20471;-58
2023/09/17 09:55:22;;;;;;;48.53;46.73;;;26.30;99.90;;;;;;5061858;28;20456;-60
2023/09/17 09:57:49;;;;;;;46.53;44.73;;;26.20;99.90;;;;;;5061805;28;20468;-62
2023/09/17 10:00:20;;;;;;;48.03;46.33;;;26.20;99.90;;;;;;5057599;28;20487;-61
2023/09/17 10:02:47;;;;;;;48.13;46.30;;;26.10;99.90;;;;;;5065288;28;20437;-61
2023/09/17 10:05:18;;;;;;;50.17;48.37;;;26.10;99.90;;;;;;5063607;28;20864;-62
2023/09/17 10:07:47;;;;;;;50.73;48.63;;;26.00;99.90;;;;;;5065058;28;20447;-60
2023/09/17 10:10:15;;;;;;;49.13;47.37;;;25.90;99.90;;;;;;5062722;28;20439;-59
2023/09/17 10:12:42;;;;;;;48.50;46.80;;;25.80;99.90;;;;;;5061362;28;20503;-62
2023/09/17 10:15:09;;;;;;;50.53;48.73;;;25.80;99.90;;;;;;5062887;28;20468;-62
2023/09/17 10:17:37;;;;;;;51.27;49.47;;;25.80;99.90;;;;;;5064542;28;20866;-63
2023/09/17 10:20:07;;;;;;;49.70;47.97;;;25.80;99.90;;;;;;5063931;28;20472;-62
2023/09/17 10:22:36;;;;;;;50.37;48.47;;;25.80;99.90;;;;;;5085920;22;20483;-55
2023/09/17 10:25:05;;;;;;;48.00;46.40;;;25.70;99.90;;;;;;5061648;28;20440;-54
2023/09/17 10:27:34;;;;;;;50.67;48.40;;;25.70;99.90;;;;;;5063111;28;20456;-52
2023/09/17 10:30:03;;;;;;;51.67;49.60;;;25.70;99.90;;;;;;5060916;28;20479;-53
2023/09/17 10:32:32;;;;;;;49.17;47.30;;;25.70;99.90;;;;;;5044214;28;20512;-51
2023/09/17 10:35:00;;;;;;;49.77;48.03;;;25.70;99.90;;;;;;5049285;28;20480;-51
2023/09/17 10:37:27;;;;;;;50.13;48.43;;;25.70;99.90;;;;;;5037058;28;20475;-51
2023/09/17 10:39:57;;;;;;;47.93;46.30;;;25.60;99.90;;;;;;5052697;28;20468;-56
2023/09/17 10:42:26;;;;;;;44.97;43.37;;;25.60;99.90;;;;;;5052493;28;20491;-58
2023/09/17 10:44:56;;;;;;;45.30;43.60;;;25.60;99.90;;;;;;5052289;28;20472;-59
2023/09/17 10:47:25;;;;;;;48.00;46.37;;;25.50;99.90;;;;;;5052503;28;20990;-57
2023/09/17 10:49:53;;;;;;;47.77;46.17;;;25.50;99.90;;;;;;5052566;28;20464;-55
2023/09/17 10:52:22;;;;;;;50.30;48.47;;;25.50;99.90;;;;;;5052337;28;20916;-57
2023/09/17 10:54:49;;;;;;;44.97;43.37;;;25.40;99.90;;;;;;5052257;28;20475;-56
2023/09/17 10:57:20;;;;;;;45.10;43.50;;;25.40;99.90;;;;;;5052141;28;21008;-59
2023/09/17 10:59:47;;;;;;;47.90;46.20;;;25.40;99.90;;;;;;5052280;28;20468;-57
2023/09/17 11:02:16;;;;;;;44.47;42.97;;;25.40;99.90;;;;;;5052030;28;20488;-58
2023/09/17 11:04:44;;;;;;;47.20;45.50;;;25.40;99.90;;;;;;5052016;28;20480;-58
2023/09/17 11:07:12;;;;;;;46.73;45.10;;;25.40;99.90;;;;;;5052032;28;20475;-57
2023/09/17 11:09:39;;;;;;;47.67;46.07;;;25.30;99.90;;;;;;5052070;28;20475;-58
2023/09/17 11:12:07;;;;;;;49.27;47.47;;;25.30;99.90;;;;;;5051102;28;20901;-58
2023/09/17 11:14:35;;;;;;;49.20;47.57;;;25.30;99.90;;;;;;5051967;28;20479;-57
2023/09/17 11:17:04;;;;;;;49.27;47.57;;;25.20;99.90;;;;;;5051807;28;20911;-58
2023/09/17 11:19:31;;;;;;;50.37;48.67;;;25.20;99.90;;;;;;5051763;28;20440;-58
2023/09/17 11:22:12;;;;;;;48.20;46.57;;;25.30;99.90;;;;;;5051683;28;20468;-56
2023/09/17 11:24:40;;;;;;;49.53;47.83;;;25.20;99.90;;;;;;5038952;28;20478;-58
2023/09/17 11:27:11;;;;;;;49.17;47.47;;;25.20;99.90;;;;;;5051601;28;20523;-58
2023/09/17 11:29:40;;;;;;;51.63;49.77;;;25.20;99.90;;;;;;5051800;28;20446;-58
2023/09/17 11:32:08;;;;;;;50.57;48.87;;;25.20;99.90;;;;;;5051358;28;20491;-59
2023/09/17 11:34:37;;;;;;;50.53;48.73;;;25.20;99.90;;;;;;5051478;28;20887;-59
2023/09/17 11:37:05;;;;;;;52.33;50.30;;;25.20;99.90;;;;;;5051495;28;20442;-60
2023/09/17 11:39:33;;;;;;;46.57;44.93;;;25.20;99.90;;;;;;5051501;28;20961;-59
2023/09/17 11:42:05;;;;;;;49.87;48.10;;;25.20;99.90;;;;;;5051442;28;20967;-60
2023/09/17 11:44:34;;;;;;;49.60;47.90;;;25.20;99.90;;;;;;5036480;28;20511;-59
2023/09/17 11:47:04;;;;;;;49.17;47.40;;;25.20;99.90;;;;;;5051443;28;20436;-60
2023/09/17 11:49:32;;;;;;;53.70;51.70;;;25.20;99.90;;;;;;5036179;28;20440;-60
2023/09/17 11:51:59;;;;;;;50.37;48.60;;;25.20;99.90;;;;;;5051470;28;20851;-60
2023/09/17 11:54:31;;;;;;;47.30;45.70;;;25.20;99.90;;;;;;5050904;28;20476;-60
2023/09/17 11:56:58;;;;;;;50.67;48.97;;;25.20;99.90;;;;;;5051364;28;20444;-60
2023/09/17 11:59:26;;;;;;;44.93;43.33;;;25.20;99.90;;;;;;5051101;28;20497;-60
2023/09/17 12:01:55;;;;;;;48.80;47.00;;;25.20;99.90;;;;;;5051178;28;20475;-57
2023/09/17 12:04:26;;;;;;;48.27;46.67;;;25.20;99.90;;;;;;5050947;28;20498;-58
2023/09/17 12:06:54;;;;;;;47.70;46.00;;;25.10;99.90;;;;;;5051238;28;20536;-60
2023/09/17 12:09:28;;;;;;;43.97;42.27;;;25.10;99.90;;;;;;5051114;28;20495;-60
2023/09/17 12:11:56;;;;;;;46.17;44.37;;;25.10;99.90;;;;;;5051122;28;20526;-60
2023/09/17 12:14:24;;;;;;;45.93;44.43;;;25.20;99.90;;;;;;5050890;28;20510;-59
2023/09/17 12:16:51;;;;;;;47.00;45.33;;;25.10;99.90;;;;;;5051133;28;20441;-60
2023/09/17 12:19:19;;;;;;;45.63;44.03;;;25.10;99.90;;;;;;5051093;28;20467;-60
2023/09/17 12:21:49;;;;;;;48.30;46.50;;;25.10;99.90;;;;;;5050830;28;20495;-60
2023/09/17 12:24:23;;;;;;;46.87;45.17;;;25.10;99.90;;;;;;5053193;28;20475;-59
2023/09/17 12:26:57;;;;;;;49.00;47.20;;;25.10;99.90;;;;;;5055198;28;20534;-60
2023/09/17 12:29:23;;;;;;;45.83;44.30;;;25.10;99.90;;;;;;5055065;28;20527;-59
2023/09/17 12:31:50;;;;;;;46.67;45.07;;;25.20;99.90;;;;;;5054860;28;20987;-59
2023/09/17 12:34:17;;;;;;;44.43;42.90;;;25.10;99.90;;;;;;5054665;28;20503;-59
2023/09/17 12:36:44;;;;;;;45.87;44.27;;;25.20;99.90;;;;;;5055052;28;20471;-58